Terminal Aerodrome Forecast
Issued by NWS

Home | Current Version | Previous Version | Text Only | Print | Product List | Glossary Off
Versions: 1 2 3 4 5 6 7 8 9 10 11 12 13 14 15 16 17 18 19 20 21 22

347
FTUS45 KGGW 172326
TAFGDV
TAF
KGDV 172326Z 1800/1824 27006KT P6SM SCT070 BKN090
     FM180500 29009KT P6SM FEW070
     FM181800 28013G21KT P6SM FEW120
     FM182300 27010KT P6SM FEW090=

USA.gov is the U.S. government's official web portal to all federal, state and local government web resources and services.